KHDE/HDE METAR and TAF weather

Enter ICAO airport designator
Station Type Date Time Source
KHDE METAR 2023/02/04 02:55 UTC NOAA

KHDE 040255Z AUTO 21009KT 10SM CLR M02/M05 A3013 RMK AO2 T10181052


Station Type Date Time Source
KHDE Decoded METAR 2023/02/04 02:55 UTC NOAA

Brewster Field Airport, NE, United States (KHDE) 40-27N 099-20W
Feb 03, 2023 - 09:55 PM EST / 2023.02.04 0255 UTC
Wind: from the SSW (210 degrees) at 10 MPH (9 KT):0
Visibility: 10 mile(s):0
Sky conditions: clear
Temperature: 28.8 F (-1.8 C)
Windchill: 19 F (-7 C):1
Dew Point: 22.6 F (-5.2 C)
Relative Humidity: 77%
Pressure (altimeter): 30.13 in. Hg (1020 hPa)
ob: KHDE 040255Z AUTO 21009KT 10SM CLR M02/M05 A3013 RMK AO2 T10181052
cycle: 3

Station Type Date Time Source
KHDE TAF UTC NOAA

Error!

Example: see airport list